Time;durP1;ratioP1;P1;durP2;ratioP2;P2;SDS_P1;SDS_P2;PMS_P1;PMS_P2;Temp;Humidity;BMP_temperature;BMP_pressure;BME280_temperature;BME280_humidity;BME280_pressure;Samples;Min_cycle;Max_cycle;Signal;HPM_P1;HPM_P2
2021/07/20 00:00:21;;;;;;;13.27;7.00;;;;;;;16.03;95.35;101069.69;5123902;29;20105;-78
2021/07/20 00:02:53;;;;;;;12.93;7.38;;;;;;;16.09;95.06;101061.50;5123657;29;20034;-78
2021/07/20 00:05:26;;;;;;;12.98;7.15;;;;;;;16.22;94.30;101067.84;5124698;28;20023;-78
2021/07/20 00:08:01;;;;;;;12.13;6.80;;;;;;;16.15;93.87;101063.81;5124550;28;20034;-78
2021/07/20 00:10:35;;;;;;;10.45;6.60;;;;;;;16.27;93.65;101057.06;5130352;28;20066;-78
2021/07/20 00:13:06;;;;;;;12.30;6.75;;;;;;;16.41;92.33;101062.53;5124871;28;20035;-78
2021/07/20 00:15:37;;;;;;;10.70;6.45;;;;;;;16.14;94.79;101055.97;5125386;28;20481;-78
2021/07/20 00:18:10;;;;;;;14.32;6.88;;;;;;;15.89;97.51;101051.06;5131586;28;20038;-78
2021/07/20 00:20:42;;;;;;;10.70;6.57;;;;;;;15.78;99.56;101063.06;5125270;28;20034;-78
2021/07/20 00:23:13;;;;;;;11.07;6.78;;;;;;;15.61;100.00;101056.00;5125555;28;20053;-78
2021/07/20 00:25:43;;;;;;;11.15;6.93;;;;;;;15.36;100.00;101054.63;5120359;28;20516;-78
2021/07/20 00:28:14;;;;;;;14.75;7.70;;;;;;;15.46;100.00;101056.75;5124583;28;20046;-78
2021/07/20 00:30:46;;;;;;;13.68;7.55;;;;;;;15.20;100.00;101064.13;5123579;29;20053;-78
2021/07/20 00:33:17;;;;;;;11.90;6.95;;;;;;;15.36;100.00;101063.34;5120337;28;20114;-78
2021/07/20 00:35:48;;;;;;;12.68;7.28;;;;;;;15.32;100.00;101063.59;5125803;28;20115;-78
2021/07/20 00:38:19;;;;;;;12.85;7.82;;;;;;;15.36;100.00;101067.78;5128707;28;20029;-78
2021/07/20 00:40:49;;;;;;;9.98;6.43;;;;;;;15.75;100.00;101069.38;5128114;28;20027;-78
2021/07/20 00:43:19;;;;;;;13.65;7.10;;;;;;;15.57;100.00;101064.97;5125263;28;20029;-78
2021/07/20 00:45:49;;;;;;;15.18;7.82;;;;;;;15.61;100.00;101063.91;5129845;28;20023;-78
2021/07/20 00:48:20;;;;;;;11.45;7.50;;;;;;;15.67;100.00;101054.88;5124232;28;20034;-78
2021/07/20 00:50:50;;;;;;;10.90;6.90;;;;;;;15.85;98.69;101070.63;5113908;28;20063;-79
2021/07/20 00:53:22;;;;;;;15.75;7.53;;;;;;;15.92;98.24;101060.63;5120749;29;20050;-78
2021/07/20 00:55:52;;;;;;;12.80;7.38;;;;;;;15.63;100.00;101058.56;5124550;28;20027;-78
2021/07/20 00:58:23;;;;;;;10.52;6.72;;;;;;;15.79;100.00;101049.84;5127710;28;20015;-78
2021/07/20 01:00:53;;;;;;;12.32;6.90;;;;;;;15.81;99.46;101058.53;5125034;29;20031;-78
2021/07/20 01:03:24;;;;;;;11.57;7.30;;;;;;;15.41;100.00;101053.47;5124289;28;20073;-78
2021/07/20 01:05:55;;;;;;;12.38;7.45;;;;;;;15.58;100.00;101053.53;5130434;28;20027;-78
2021/07/20 01:08:25;;;;;;;12.38;6.82;;;;;;;15.57;100.00;101048.31;5125689;28;20066;-78
2021/07/20 01:11:00;;;;;;;13.70;7.78;;;;;;;15.60;100.00;101049.03;5124316;28;20031;-79
2021/07/20 01:13:32;;;;;;;13.35;8.23;;;;;;;15.38;100.00;101042.22;5122710;29;20093;-78
2021/07/20 01:16:04;;;;;;;12.20;7.63;;;;;;;15.52;100.00;101045.91;5124466;28;20038;-79
2021/07/20 01:18:38;;;;;;;12.43;7.28;;;;;;;15.63;100.00;101046.25;5123854;28;20035;-78
2021/07/20 01:21:09;;;;;;;13.32;6.60;;;;;;;15.98;100.00;101039.22;5137282;28;20146;-78
2021/07/20 01:23:44;;;;;;;11.52;6.68;;;;;;;16.12;98.90;101048.16;5120069;29;20493;-78
2021/07/20 01:26:14;;;;;;;11.82;6.85;;;;;;;15.96;100.00;101046.34;5126173;28;20042;-78
2021/07/20 01:28:46;;;;;;;11.50;7.25;;;;;;;15.86;100.00;101058.31;5129280;28;20035;-78
2021/07/20 01:31:19;;;;;;;11.07;6.05;;;;;;;16.13;96.63;101041.94;5128186;28;20031;-78
2021/07/20 01:33:53;;;;;;;13.60;6.75;;;;;;;16.21;94.87;101041.56;5128268;28;20035;-78
2021/07/20 01:36:25;;;;;;;11.15;6.32;;;;;;;16.30;94.24;101043.72;5128742;28;20150;-78
2021/07/20 01:38:56;;;;;;;11.73;6.13;;;;;;;16.44;94.71;101039.47;5132223;28;20035;-78
2021/07/20 01:41:26;;;;;;;10.15;5.88;;;;;;;16.27;94.81;101042.09;5129844;28;20074;-79
2021/07/20 01:44:02;;;;;;;15.45;6.72;;;;;;;16.40;95.18;101042.34;5128467;28;20123;-78
2021/07/20 01:46:34;;;;;;;11.05;6.90;;;;;;;16.36;97.47;101046.09;5132928;28;20027;-79
2021/07/20 01:49:10;;;;;;;12.25;6.60;;;;;;;16.06;99.36;101048.44;5128560;28;20043;-79
2021/07/20 01:51:41;;;;;;;12.13;6.50;;;;;;;15.95;100.00;101052.56;5116443;29;20038;-79
2021/07/20 01:54:12;;;;;;;9.45;6.63;;;;;;;15.92;100.00;101052.72;5127505;29;20046;-78
2021/07/20 01:56:42;;;;;;;11.63;7.40;;;;;;;15.85;100.00;101054.78;5128402;28;20035;-78
2021/07/20 01:59:12;;;;;;;12.15;6.70;;;;;;;15.94;100.00;101040.31;5131651;28;20023;-79
2021/07/20 02:02:05;;;;;;;10.75;7.18;;;;;;;15.78;100.00;101053.41;5128068;28;20106;-79
2021/07/20 02:04:48;;;;;;;11.10;7.00;;;;;;;15.76;100.00;101052.63;5127762;28;20560;-78
2021/07/20 02:10:12;;;;;;;14.52;8.07;;;;;;;15.63;100.00;101053.28;5133362;28;20041;-79
2021/07/20 02:12:44;;;;;;;12.75;7.22;;;;;;;15.47;100.00;101044.41;5127949;28;20498;-78
2021/07/20 02:15:15;;;;;;;13.00;7.15;;;;;;;15.55;100.00;101045.75;5130744;28;20148;-78
2021/07/20 02:17:48;;;;;;;13.25;7.20;;;;;;;15.59;100.00;101049.97;5130720;28;20031;-78
2021/07/20 02:20:26;;;;;;;13.68;7.43;;;;;;;15.48;100.00;101052.25;5123972;28;20087;-78
2021/07/20 02:22:58;;;;;;;15.00;7.53;;;;;;;15.52;100.00;101051.16;5124363;28;20090;-78
2021/07/20 02:25:30;;;;;;;14.10;7.22;;;;;;;15.45;100.00;101049.75;5122612;29;20031;-78
2021/07/20 02:28:03;;;;;;;15.27;7.82;;;;;;;15.55;100.00;101044.91;5124153;28;20037;-78
2021/07/20 02:30:34;;;;;;;10.73;7.00;;;;;;;15.79;100.00;101052.47;5124384;28;20019;-79
2021/07/20 02:33:05;;;;;;;15.45;8.00;;;;;;;15.69;100.00;101053.84;5122299;29;20027;-78
2021/07/20 02:35:37;;;;;;;15.15;7.53;;;;;;;15.61;100.00;101048.09;5123901;28;20038;-79
2021/07/20 02:38:08;;;;;;;13.18;7.03;;;;;;;15.81;100.00;101052.38;5126027;28;20027;-79
2021/07/20 02:40:39;;;;;;;17.05;7.70;;;;;;;15.68;100.00;101053.94;5129778;28;20029;-79
2021/07/20 02:43:10;;;;;;;13.15;6.75;;;;;;;15.63;100.00;101051.50;5121414;28;20034;-79
2021/07/20 02:45:42;;;;;;;12.52;7.28;;;;;;;15.90;100.00;101047.50;5130304;28;20525;-78
2021/07/20 02:48:14;;;;;;;15.18;7.60;;;;;;;15.71;100.00;101051.97;5123809;28;20031;-79
2021/07/20 02:50:45;;;;;;;12.73;7.13;;;;;;;15.46;100.00;101046.19;5123607;28;20091;-79
2021/07/20 02:53:16;;;;;;;11.60;7.28;;;;;;;15.63;100.00;101048.00;5123166;28;20110;-78
2021/07/20 02:55:49;;;;;;;13.23;7.25;;;;;;;15.50;100.00;101046.91;5123228;28;20042;-79
2021/07/20 02:58:21;;;;;;;13.23;8.32;;;;;;;15.31;100.00;101046.06;5127747;28;20147;-79
2021/07/20 03:00:55;;;;;;;11.25;7.38;;;;;;;15.42;100.00;101049.91;5121901;29;20031;-79
2021/07/20 03:03:26;;;;;;;11.93;7.15;;;;;;;15.64;100.00;101049.72;5121953;29;20077;-78
2021/07/20 03:05:59;;;;;;;11.50;7.03;;;;;;;15.79;100.00;101052.47;5122722;29;20096;-79
2021/07/20 03:08:30;;;;;;;13.65;7.57;;;;;;;15.74;100.00;101051.00;5126224;28;20038;-78
2021/07/20 03:11:04;;;;;;;11.70;7.30;;;;;;;15.71;100.00;101051.97;5129670;28;20398;-79
2021/07/20 03:13:39;;;;;;;11.90;7.07;;;;;;;15.61;100.00;101053.38;5126779;28;20034;-79
2021/07/20 03:16:11;;;;;;;15.70;7.60;;;;;;;15.45;100.00;101043.63;5127681;28;20046;-79
2021/07/20 03:18:43;;;;;;;11.35;6.88;;;;;;;15.63;100.00;101059.41;5121910;29;20062;-79
2021/07/20 03:21:15;;;;;;;11.25;6.88;;;;;;;15.51;100.00;101060.00;5123020;28;20245;-79
2021/07/20 03:23:47;;;;;;;10.98;7.60;;;;;;;15.70;100.00;101054.72;5122303;29;20042;-79
2021/07/20 03:26:18;;;;;;;11.52;7.25;;;;;;;15.73;100.00;101054.56;5120732;28;20031;-79
2021/07/20 03:28:50;;;;;;;11.85;7.03;;;;;;;15.95;100.00;101050.78;5126107;28;20031;-79
2021/07/20 03:31:21;;;;;;;11.63;6.82;;;;;;;16.04;100.00;101050.31;5120886;29;20478;-79
2021/07/20 03:33:52;;;;;;;11.15;6.63;;;;;;;15.96;100.00;101060.41;5121189;29;20038;-79
2021/07/20 03:36:24;;;;;;;14.50;7.25;;;;;;;15.83;100.00;101055.78;5123174;28;20034;-79
2021/07/20 03:38:54;;;;;;;11.20;6.47;;;;;;;15.75;100.00;101053.56;5126000;28;20027;-78
2021/07/20 03:41:27;;;;;;;9.77;6.28;;;;;;;15.88;100.00;101057.28;5127910;28;20113;-79
2021/07/20 03:43:58;;;;;;;10.85;5.68;;;;;;;15.90;100.00;101058.06;5125856;28;20511;-79
2021/07/20 03:46:29;;;;;;;11.05;5.53;;;;;;;15.93;100.00;101063.19;5125789;28;20371;-79
2021/07/20 03:49:00;;;;;;;10.60;5.40;;;;;;;16.09;97.88;101052.72;5122260;28;20035;-79
2021/07/20 03:51:30;;;;;;;9.40;5.10;;;;;;;16.06;99.40;101064.28;5122392;28;20026;-79
2021/07/20 03:54:01;;;;;;;12.13;5.90;;;;;;;15.88;100.00;101065.19;5121271;29;20478;-79
2021/07/20 03:56:34;;;;;;;10.20;5.70;;;;;;;15.97;100.00;101059.47;5119425;28;20394;-79
2021/07/20 03:59:08;;;;;;;8.60;5.72;;;;;;;15.85;100.00;101059.22;5122368;28;20030;-78
2021/07/20 04:01:40;;;;;;;12.02;5.60;;;;;;;16.03;98.85;101064.44;5121860;28;20172;-78
2021/07/20 04:04:14;;;;;;;9.25;5.10;;;;;;;16.01;99.18;101061.03;5118529;29;20039;-79
2021/07/20 04:06:46;;;;;;;10.52;5.75;;;;;;;16.08;97.98;101066.84;5122703;28;20082;-79
2021/07/20 04:09:17;;;;;;;12.23;5.43;;;;;;;16.17;95.20;101064.59;5128447;28;20023;-78
2021/07/20 04:11:49;;;;;;;10.52;5.30;;;;;;;16.17;96.78;101051.41;5123549;28;20042;-79
2021/07/20 04:14:20;;;;;;;9.48;5.10;;;;;;;16.13;96.64;101060.41;5127590;28;20481;-79
2021/07/20 04:16:50;;;;;;;11.23;5.32;;;;;;;16.19;96.14;101062.72;5125332;28;20094;-79
2021/07/20 04:19:20;;;;;;;11.63;5.65;;;;;;;16.24;95.51;101062.50;5120889;29;20110;-79
2021/07/20 04:21:51;;;;;;;10.45;4.88;;;;;;;16.51;93.99;101064.59;5122577;28;20394;-79
2021/07/20 04:24:26;;;;;;;8.85;4.82;;;;;;;16.60;92.33;101056.22;5122818;28;20505;-79
2021/07/20 04:26:57;;;;;;;;;;;;;;;16.47;92.49;101065.72;5121097;28;20035;-79
2021/07/20 04:29:28;;;;;;;10.30;5.03;;;;;;;16.38;92.51;101071.44;5122242;28;20395;-79
2021/07/20 04:32:02;;;;;;;8.02;4.30;;;;;;;16.45;93.00;101066.72;5122778;28;20038;-79
2021/07/20 04:34:35;;;;;;;11.60;4.55;;;;;;;16.53;91.91;101072.47;5122435;28;20035;-79
2021/07/20 04:37:07;;;;;;;10.68;4.75;;;;;;;16.54;91.76;101072.34;5127005;28;20030;-79
2021/07/20 04:39:38;;;;;;;12.43;4.88;;;;;;;16.54;90.68;101080.28;5131606;28;20470;-79
2021/07/20 04:42:08;;;;;;;11.93;4.60;;;;;;;16.60;92.26;101081.75;5116966;28;20027;-79
2021/07/20 04:44:39;;;;;;;9.63;4.25;;;;;;;16.60;93.41;101082.63;5121767;28;20031;-79
2021/07/20 04:47:10;;;;;;;8.27;4.47;;;;;;;16.71;91.56;101074.97;5115528;28;20374;-79
2021/07/20 04:49:41;;;;;;;9.93;4.40;;;;;;;16.75;92.98;101089.72;5121817;28;20269;-79
2021/07/20 04:52:12;;;;;;;12.38;4.10;;;;;;;16.82;90.31;101078.75;5129738;28;20022;-79
2021/07/20 04:54:43;;;;;;;10.10;4.53;;;;;;;16.78;89.39;101076.38;5121170;28;20043;-79
2021/07/20 04:57:14;;;;;;;11.35;4.70;;;;;;;16.77;89.39;101076.44;5124393;28;20070;-79
2021/07/20 04:59:44;;;;;;;10.90;4.22;;;;;;;16.83;89.79;101079.63;5125992;28;20442;-79
2021/07/20 05:02:15;;;;;;;11.02;4.43;;;;;;;16.84;89.91;101079.50;5120567;28;20037;-79
2021/07/20 05:04:47;;;;;;;10.07;4.40;;;;;;;16.63;89.83;101086.88;5120499;28;20449;-79
2021/07/20 05:07:18;;;;;;;7.57;4.32;;;;;;;16.72;90.71;101078.47;5126787;28;20034;-79
2021/07/20 05:09:51;;;;;;;10.68;4.70;;;;;;;16.68;91.08;101090.09;5122711;28;20027;-79
2021/07/20 05:12:23;;;;;;;9.18;4.50;;;;;;;16.57;90.49;101088.03;5119707;28;20497;-79
2021/07/20 05:14:53;;;;;;;10.88;4.57;;;;;;;16.76;90.23;101091.41;5116854;28;20089;-79
2021/07/20 05:17:23;;;;;;;12.98;4.50;;;;;;;16.71;90.26;101089.97;5115334;28;20023;-79
2021/07/20 05:19:55;;;;;;;15.00;4.80;;;;;;;16.87;89.52;101091.72;5124720;28;20075;-79
2021/07/20 05:22:26;;;;;;;9.40;4.50;;;;;;;16.74;89.85;101090.66;5132146;28;20109;-79
2021/07/20 05:24:56;;;;;;;9.20;4.30;;;;;;;16.71;90.95;101080.25;5152605;28;20073;-79
2021/07/20 05:27:31;;;;;;;15.10;4.40;;;;;;;16.87;89.90;101083.78;5129655;28;20085;-79
2021/07/20 05:30:07;;;;;;;13.45;4.80;;;;;;;16.90;89.91;101086.25;5131901;28;20102;-79
2021/07/20 05:32:41;;;;;;;8.43;4.30;;;;;;;16.94;89.73;101091.31;5128346;28;20028;-79
2021/07/20 05:35:16;;;;;;;10.27;4.47;;;;;;;16.74;90.44;101082.72;5126716;28;20114;-79
2021/07/20 05:37:48;;;;;;;12.80;4.63;;;;;;;16.93;89.99;101091.38;5129045;28;20333;-79
2021/07/20 05:40:20;;;;;;;12.52;4.40;;;;;;;16.85;90.66;101083.03;5152600;28;20019;-79
2021/07/20 05:42:51;;;;;;;11.00;4.45;;;;;;;16.91;90.37;101083.56;5126791;28;20030;-80
2021/07/20 05:45:23;;;;;;;11.23;4.40;;;;;;;16.80;90.71;101080.63;5134575;28;20027;-79
2021/07/20 05:47:55;;;;;;;10.50;4.68;;;;;;;16.97;90.26;101087.66;5131031;28;20070;-80
2021/07/20 05:50:26;;;;;;;11.60;4.60;;;;;;;17.11;90.03;101093.06;5128892;28;20121;-79
2021/07/20 05:52:59;;;;;;;11.25;4.53;;;;;;;17.19;90.55;101090.84;5131873;28;20599;-79
2021/07/20 05:55:31;;;;;;;11.85;4.95;;;;;;;17.12;89.87;101092.13;5126149;28;20098;-80
2021/07/20 05:58:03;;;;;;;12.98;4.78;;;;;;;17.26;89.46;101100.13;5127667;28;20031;-79
2021/07/20 06:00:33;;;;;;;11.15;4.60;;;;;;;17.16;89.56;101093.66;5149563;28;20089;-79
2021/07/20 06:03:04;;;;;;;13.00;4.22;;;;;;;17.32;88.73;101100.66;5130470;28;20027;-80
2021/07/20 06:05:35;;;;;;;11.25;4.18;;;;;;;17.18;89.37;101102.34;5129565;28;20113;-80
2021/07/20 06:08:05;;;;;;;11.45;4.60;;;;;;;17.07;89.18;101094.13;5133987;28;20118;-80
2021/07/20 06:10:36;;;;;;;13.65;4.55;;;;;;;17.09;88.63;101090.50;5136235;28;20046;-80
2021/07/20 06:13:09;;;;;;;13.65;4.82;;;;;;;17.02;89.92;101104.09;5135185;28;20034;-80
2021/07/20 06:15:40;;;;;;;12.15;4.68;;;;;;;16.94;90.10;101099.22;5140741;28;20035;-80
2021/07/20 06:18:10;;;;;;;12.93;4.93;;;;;;;17.09;90.49;101108.09;5134347;28;20019;-80
2021/07/20 06:20:53;;;;;;;9.82;4.88;;;;;;;17.13;90.03;101107.03;5132720;28;20405;-80
2021/07/20 06:23:26;;;;;;;12.77;4.90;;;;;;;17.19;89.59;101117.25;5132759;28;20300;-80
2021/07/20 06:25:57;;;;;;;11.77;4.93;;;;;;;17.25;89.10;101111.63;5136257;28;20378;-80
2021/07/20 06:28:29;;;;;;;9.73;4.53;;;;;;;17.00;89.51;101108.63;5133481;28;20059;-80
2021/07/20 06:31:00;;;;;;;13.88;4.40;;;;;;;17.25;89.26;101114.28;5133442;28;20060;-80
2021/07/20 06:33:33;;;;;;;15.40;4.88;;;;;;;17.39;89.10;101117.06;5132730;28;20027;-80
2021/07/20 06:36:04;;;;;;;10.93;4.78;;;;;;;17.30;89.41;101122.81;5135305;28;20023;-80
2021/07/20 06:38:34;;;;;;;10.45;4.57;;;;;;;17.37;88.74;101119.81;5121376;28;20030;-80
2021/07/20 06:41:04;;;;;;;14.00;4.82;;;;;;;17.26;90.01;101121.25;5123745;28;20035;-80
2021/07/20 06:43:37;;;;;;;12.77;4.32;;;;;;;17.51;89.03;101124.31;5122912;28;20041;-80
2021/07/20 06:46:08;;;;;;;13.38;4.25;;;;;;;17.36;89.00;101125.16;5125151;28;20023;-80
2021/07/20 06:48:42;;;;;;;9.02;3.60;;;;;;;17.47;88.99;101125.44;5122186;28;20127;-80
2021/07/20 06:51:13;;;;;;;13.98;4.20;;;;;;;17.58;88.71;101123.03;5123221;28;20067;-80
2021/07/20 06:53:43;;;;;;;12.75;3.90;;;;;;;17.65;88.13;101127.06;5122345;28;20042;-80
2021/07/20 06:56:20;;;;;;;8.45;3.80;;;;;;;17.70;87.99;101132.94;5121209;29;20035;-80
2021/07/20 06:58:52;;;;;;;11.18;3.72;;;;;;;17.90;85.83;101130.03;5129034;28;20055;-80
2021/07/20 07:01:25;;;;;;;11.55;3.42;;;;;;;17.87;85.24;101132.84;5128496;28;20023;-80
2021/07/20 07:04:08;;;;;;;10.50;3.10;;;;;;;17.69;85.05;101132.06;5127929;28;20034;-80
2021/07/20 07:06:43;;;;;;;8.25;2.92;;;;;;;17.72;85.10;101139.84;5127180;28;20061;-80
2021/07/20 07:09:13;;;;;;;10.27;3.35;;;;;;;17.60;84.93;101151.09;5130795;28;20382;-80
2021/07/20 07:11:45;;;;;;;12.27;3.33;;;;;;;17.72;85.13;101144.28;5128082;28;20030;-80
2021/07/20 07:14:16;;;;;;;9.18;2.92;;;;;;;17.96;83.67;101145.53;5129780;28;20062;-80
2021/07/20 07:16:47;;;;;;;11.13;3.22;;;;;;;17.91;84.25;101151.09;5130327;28;20068;-80
2021/07/20 07:19:21;;;;;;;7.60;2.97;;;;;;;18.07;84.74;101151.06;5124400;28;20062;-80
2021/07/20 07:21:52;;;;;;;10.98;3.20;;;;;;;18.24;84.59;101146.53;5124412;29;20332;-80
2021/07/20 07:24:23;;;;;;;10.20;2.90;;;;;;;18.53;82.78;101152.81;5123478;28;20159;-80
2021/07/20 07:26:54;;;;;;;7.25;2.88;;;;;;;18.54;81.48;101149.22;5124680;29;20035;-80
2021/07/20 07:29:26;;;;;;;12.10;3.05;;;;;;;18.76;80.62;101156.63;5124806;28;20033;-80
2021/07/20 07:31:56;;;;;;;7.22;2.70;;;;;;;18.88;81.07;101161.22;5126880;28;20366;-80
2021/07/20 07:34:26;;;;;;;8.65;2.80;;;;;;;19.11;79.76;101150.06;5127871;28;20062;-80
2021/07/20 07:36:58;;;;;;;6.80;2.95;;;;;;;19.21;80.05;101148.59;5124569;29;20027;-80
2021/07/20 07:39:30;;;;;;;11.15;2.75;;;;;;;19.29;79.35;101146.31;5131400;28;20027;-80
2021/07/20 07:42:01;;;;;;;10.80;2.80;;;;;;;19.40;77.87;101143.84;5127425;28;20469;-80
2021/07/20 07:44:32;;;;;;;6.60;2.72;;;;;;;19.60;77.91;101146.09;5131680;28;20074;-80
2021/07/20 07:47:04;;;;;;;9.15;2.70;;;;;;;19.53;77.65;101149.22;5129388;28;20037;-80
2021/07/20 07:49:36;;;;;;;9.93;2.72;;;;;;;19.32;79.57;101151.44;5125615;29;20056;-80
2021/07/20 07:52:08;;;;;;;7.57;2.90;;;;;;;19.06;79.88;101159.22;5126079;28;20055;-80
2021/07/20 07:54:45;;;;;;;5.53;2.72;;;;;;;18.57;81.20;101159.63;5131287;28;20087;-80
2021/07/20 07:57:17;;;;;;;12.27;3.22;;;;;;;18.54;82.46;101149.22;5127506;28;20039;-80
2021/07/20 07:59:52;;;;;;;9.30;3.40;;;;;;;18.89;80.77;101154.97;5127374;28;20027;-80
2021/07/20 08:02:30;;;;;;;9.65;2.80;;;;;;;19.15;80.71;101153.38;5125544;28;20023;-80
2021/07/20 08:05:03;;;;;;;9.02;3.08;;;;;;;19.20;80.13;101153.97;5147137;28;20412;-80
2021/07/20 08:07:36;;;;;;;9.52;2.90;;;;;;;19.10;79.84;101148.34;5124431;28;20069;-80
2021/07/20 08:10:09;;;;;;;10.35;2.92;;;;;;;19.11;79.84;101154.53;5134089;28;20054;-80
2021/07/20 08:12:44;;;;;;;8.95;3.08;;;;;;;19.27;79.86;101153.50;5124090;28;20031;-80
2021/07/20 08:15:15;;;;;;;6.23;2.87;;;;;;;19.35;79.66;101148.59;5133000;28;20383;-80
2021/07/20 08:17:48;;;;;;;9.02;2.88;;;;;;;19.33;79.92;101149.63;5126887;28;20037;-79
2021/07/20 08:20:20;;;;;;;7.45;3.00;;;;;;;19.49;78.89;101158.31;5127019;28;20054;-79
2021/07/20 08:22:50;;;;;;;11.90;2.90;;;;;;;19.38;78.16;101151.03;5125772;28;20024;-79
2021/07/20 08:25:27;;;;;;;7.38;2.55;;;;;;;19.58;78.51;101153.28;5129894;28;20405;-79
2021/07/20 08:28:06;;;;;;;9.95;3.05;;;;;;;19.49;77.74;101153.88;5128534;28;20043;-79
2021/07/20 08:30:42;;;;;;;9.10;2.60;;;;;;;19.63;76.46;101155.66;5152791;28;20035;-79
2021/07/20 08:33:23;;;;;;;8.02;2.30;;;;;;;19.41;77.15;101150.00;5128368;28;20031;-79
2021/07/20 08:35:57;;;;;;;6.63;2.10;;;;;;;19.80;75.80;101148.31;5126594;28;20023;-79
2021/07/20 08:38:30;;;;;;;5.68;2.40;;;;;;;20.02;74.23;101148.69;5132081;28;20014;-79
2021/07/20 08:41:06;;;;;;;8.38;2.80;;;;;;;20.04;73.80;101148.56;5135634;28;20047;-79
2021/07/20 08:44:14;;;;;;;6.45;2.28;;;;;;;20.34;74.26;101151.88;5126343;28;20027;-79
2021/07/20 08:46:52;;;;;;;6.80;2.30;;;;;;;20.18;72.94;101148.50;5125360;28;20163;-79
2021/07/20 08:49:50;;;;;;;8.23;2.38;;;;;;;20.06;73.51;101144.00;5124980;28;20251;-79
2021/07/20 08:52:28;;;;;;;5.65;2.30;;;;;;;19.94;73.83;101145.63;5123098;29;20058;-79
2021/07/20 08:55:10;;;;;;;6.55;2.20;;;;;;;19.59;75.65;101147.03;5125576;28;20031;-79
2021/07/20 08:58:03;;;;;;;8.80;2.42;;;;;;;19.61;75.39;101146.94;5121125;28;20041;-79
2021/07/20 09:00:40;;;;;;;7.05;2.20;;;;;;;19.90;73.83;101153.88;5129972;28;20065;-79
2021/07/20 09:03:17;;;;;;;8.23;2.17;;;;;;;19.60;74.13;101151.38;5122408;28;20100;-79
2021/07/20 09:05:53;;;;;;;8.80;2.45;;;;;;;19.62;73.43;101157.44;5125613;28;20031;-79
2021/07/20 09:08:33;;;;;;;5.07;2.15;;;;;;;19.59;73.97;101157.66;5136976;28;20026;-79
2021/07/20 09:11:28;;;;;;;6.70;2.22;;;;;;;19.75;75.08;101154.88;5131968;28;20035;-79
2021/07/20 09:14:34;;;;;;;7.85;2.40;;;;;;;19.62;73.45;101153.97;5128278;28;20042;-79
2021/07/20 09:17:13;;;;;;;5.63;2.22;;;;;;;19.67;75.10;101151.84;5129405;28;20074;-80
2021/07/20 09:20:01;;;;;;;7.13;2.53;;;;;;;19.70;74.67;101147.22;5122155;29;20039;-79
2021/07/20 09:22:37;;;;;;;7.25;2.55;;;;;;;19.75;77.55;101150.41;5124515;29;20020;-79
2021/07/20 09:25:13;;;;;;;7.65;2.70;;;;;;;19.78;78.06;101160.00;5125013;28;20047;-79
2021/07/20 09:28:02;;;;;;;7.45;2.90;;;;;;;19.56;79.47;101157.84;5124401;29;20280;-79
2021/07/20 09:30:38;;;;;;;8.45;2.47;;;;;;;19.71;78.42;101153.34;5125297;29;20027;-79
2021/07/20 09:33:20;;;;;;;5.57;2.58;;;;;;;19.85;77.98;101162.16;5123982;29;20034;-79
2021/07/20 09:36:10;;;;;;;7.82;2.63;;;;;;;19.58;78.04;101166.56;5121216;29;20031;-78
2021/07/20 09:39:02;;;;;;;7.03;2.75;;;;;;;19.84;77.51;101168.41;5122795;28;20162;-79
2021/07/20 09:41:54;;;;;;;7.97;2.42;;;;;;;22.50;71.08;101161.09;5127319;28;20023;-79
2021/07/20 09:44:36;;;;;;;7.63;2.50;;;;;;;24.24;64.61;101158.66;5126712;28;20034;-79
2021/07/20 09:47:23;;;;;;;7.82;2.40;;;;;;;25.18;61.79;101147.84;5134288;28;20030;-79
2021/07/20 09:50:18;;;;;;;8.63;2.15;;;;;;;23.89;65.11;101161.53;5133621;28;20550;-79
2021/07/20 09:53:15;;;;;;;7.55;2.10;;;;;;;25.64;61.62;101148.22;5133017;28;20058;-80
2021/07/20 09:56:14;;;;;;;6.45;2.20;;;;;;;27.22;57.51;101141.38;5121220;28;20023;-77
2021/07/20 09:58:57;;;;;;;4.68;2.10;;;;;;;27.13;57.19;101134.19;5120997;29;20424;-78
2021/07/20 10:01:34;;;;;;;6.20;1.80;;;;;;;26.93;56.79;101145.09;5123129;28;20031;-78
2021/07/20 10:04:07;;;;;;;4.75;2.00;;;;;;;26.32;56.64;101145.56;5125604;28;20042;-78
2021/07/20 10:06:52;;;;;;;6.00;1.80;;;;;;;25.99;58.57;101137.91;5125139;28;20516;-78
2021/07/20 10:09:27;;;;;;;5.93;1.95;;;;;;;24.41;60.39;101144.75;5127638;28;20030;-78
2021/07/20 10:12:01;;;;;;;6.38;1.90;;;;;;;23.38;61.32;101149.66;5125579;28;20035;-77
2021/07/20 10:14:44;;;;;;;4.65;1.75;;;;;;;22.53;63.70;101151.06;5128584;28;20038;-78
2021/07/20 10:17:25;;;;;;;5.35;2.00;;;;;;;22.48;64.20;101142.59;5121532;28;20019;-77
2021/07/20 10:20:03;;;;;;;6.15;1.80;;;;;;;22.80;65.66;101148.97;5122931;28;20028;-77
2021/07/20 10:22:39;;;;;;;5.22;1.98;;;;;;;22.67;64.34;101136.69;5125181;28;20038;-77
2021/07/20 10:25:32;;;;;;;4.10;1.92;;;;;;;22.73;64.74;101137.06;5125665;28;20058;-78
2021/07/20 10:28:14;;;;;;;9.38;2.30;;;;;;;22.61;64.65;101142.50;5123958;29;20482;-78
2021/07/20 10:30:52;;;;;;;10.30;2.45;;;;;;;22.91;64.56;101139.19;5121221;29;20035;-78
2021/07/20 10:33:25;;;;;;;7.82;2.17;;;;;;;23.44;63.86;101138.53;5125096;28;20137;-78
2021/07/20 10:36:04;;;;;;;6.85;2.38;;;;;;;23.50;62.56;101129.19;5123850;29;20055;-77
2021/07/20 10:38:40;;;;;;;10.02;2.20;;;;;;;23.35;61.99;101133.91;5129057;28;20031;-78
2021/07/20 10:41:16;;;;;;;4.45;1.77;;;;;;;23.27;60.81;101123.00;5129058;28;20074;-78
2021/07/20 10:44:13;;;;;;;10.35;2.00;;;;;;;22.96;62.65;101106.81;5124736;28;20027;-77
2021/07/20 10:46:45;;;;;;;5.45;2.00;;;;;;;22.86;61.64;101121.84;5127091;28;20341;-77
2021/07/20 10:49:38;;;;;;;4.75;2.00;;;;;;;22.84;61.50;101124.63;5124092;28;20054;-78
2021/07/20 10:52:50;;;;;;;5.40;2.00;;;;;;;21.73;63.87;101126.91;5129578;28;20106;-77
2021/07/20 10:55:42;;;;;;;4.60;1.90;;;;;;;22.22;64.35;101125.00;5128358;28;20037;-77
2021/07/20 10:58:29;;;;;;;6.85;2.10;;;;;;;22.76;64.42;101111.03;5119005;28;20059;-78
2021/07/20 11:01:20;;;;;;;3.83;1.70;;;;;;;23.26;60.55;101121.31;5122738;29;20118;-78
2021/07/20 11:04:03;;;;;;;5.75;2.00;;;;;;;23.77;59.83;101116.25;5122573;29;20102;-78
2021/07/20 11:06:36;;;;;;;3.65;1.73;;;;;;;23.29;57.22;101120.19;5125505;28;20633;-77
2021/07/20 11:09:17;;;;;;;3.38;1.60;;;;;;;22.70;58.79;101116.81;5129887;28;20027;-78
2021/07/20 11:12:02;;;;;;;4.45;1.58;;;;;;;22.87;58.99;101116.38;5123180;28;20032;-77
2021/07/20 11:14:42;;;;;;;4.63;1.73;;;;;;;22.53;58.63;101111.09;5127652;28;20023;-77
2021/07/20 11:17:16;;;;;;;4.88;1.65;;;;;;;22.05;58.41;101119.25;5125854;28;20038;-77
2021/07/20 11:19:49;;;;;;;4.38;1.55;;;;;;;22.66;57.95;101119.88;5123296;28;20106;-77
2021/07/20 11:22:20;;;;;;;5.07;1.85;;;;;;;22.73;59.46;101116.63;5123520;28;20105;-77
2021/07/20 11:24:50;;;;;;;4.35;1.50;;;;;;;22.65;56.99;101111.97;5124298;28;20035;-77
2021/07/20 11:27:23;;;;;;;3.70;1.48;;;;;;;22.68;55.84;101121.44;5123402;29;20038;-78
2021/07/20 11:29:54;;;;;;;5.70;1.65;;;;;;;22.51;56.91;101110.38;5123985;28;20039;-77
2021/07/20 11:32:30;;;;;;;3.90;1.30;;;;;;;22.38;57.28;101104.28;5122466;29;20168;-77
2021/07/20 11:35:11;;;;;;;2.83;1.50;;;;;;;22.61;58.68;101116.69;5122545;28;20039;-77
2021/07/20 11:37:53;;;;;;;3.22;1.85;;;;;;;22.68;60.33;101116.09;5119331;28;20038;-77
2021/07/20 11:40:26;;;;;;;6.28;1.45;;;;;;;23.23;58.84;101113.53;5125601;28;20019;-77
2021/07/20 11:43:04;;;;;;;4.07;1.70;;;;;;;22.67;59.28;101110.03;5124187;28;20031;-78
2021/07/20 11:46:02;;;;;;;4.95;2.15;;;;;;;22.67;60.04;101115.38;5129988;28;20031;-77
2021/07/20 11:48:42;;;;;;;5.13;1.70;;;;;;;22.31;59.70;101120.81;5117511;29;20043;-77
2021/07/20 11:51:39;;;;;;;4.70;1.70;;;;;;;22.11;60.05;101116.13;5118780;29;20377;-78
2021/07/20 11:54:20;;;;;;;5.40;1.63;;;;;;;21.88;60.95;101111.66;5122137;28;20031;-77
2021/07/20 11:56:59;;;;;;;5.15;1.88;;;;;;;21.95;60.87;101121.72;5119403;29;20031;-76